Time;durP1;ratioP1;P1;durP2;ratioP2;P2;SDS_P1;SDS_P2;PMS_P1;PMS_P2;Temp;Humidity;BMP_temperature;BMP_pressure;BME280_temperature;BME280_humidity;BME280_pressure;Samples;Min_cycle;Max_cycle;Signal;HPM_P1;HPM_P2
2022/10/08 00:00:54;;;;;;;1999.90;999.90;;;12.70;99.90;;;;;;4992984;28;20186;-72
2022/10/08 00:03:23;;;;;;;1999.90;999.90;;;12.70;99.90;;;;;;4993097;28;20406;-73
2022/10/08 00:06:05;;;;;;;1999.90;999.90;;;12.70;99.90;;;;;;4992926;28;20419;-72
2022/10/08 00:08:34;;;;;;;1999.90;999.90;;;12.60;99.90;;;;;;4992885;28;20550;-72
2022/10/08 00:11:12;;;;;;;1999.90;999.90;;;12.60;99.90;;;;;;4993012;28;20414;-73
2022/10/08 00:13:40;;;;;;;1999.90;999.90;;;12.60;99.90;;;;;;4992949;28;20404;-72
2022/10/08 00:16:11;;;;;;;1999.90;999.90;;;12.60;99.90;;;;;;4992846;28;20421;-72
2022/10/08 00:18:40;;;;;;;1999.90;999.90;;;12.60;99.90;;;;;;4992594;28;20552;-72
2022/10/08 00:21:10;;;;;;;1999.90;999.90;;;12.50;99.90;;;;;;4992832;28;20405;-73
2022/10/08 00:23:35;;;;;;;1999.90;999.90;;;12.60;99.90;;;;;;4992815;28;20409;-72
2022/10/08 00:26:06;;;;;;;1999.90;999.90;;;12.60;99.90;;;;;;4992628;28;20403;-72
2022/10/08 00:28:32;;;;;;;1999.90;999.90;;;12.60;99.90;;;;;;4992494;28;20172;-72
2022/10/08 00:31:08;;;;;;;1999.90;999.90;;;12.60;99.90;;;;;;5051022;22;20492;-68
2022/10/08 00:33:37;;;;;;;1999.90;999.90;;;12.60;99.90;;;;;;5012333;28;20404;-68
2022/10/08 00:36:05;;;;;;;1999.90;999.90;;;12.50;99.90;;;;;;5012324;28;20398;-68
2022/10/08 00:38:31;;;;;;;1999.90;999.90;;;12.60;99.90;;;;;;5011924;28;20908;-68
2022/10/08 00:40:58;;;;;;;1999.90;999.90;;;12.50;99.90;;;;;;5012177;28;20512;-68
2022/10/08 00:43:39;;;;;;;1999.90;999.90;;;12.60;99.90;;;;;;5012874;28;20393;-68
2022/10/08 00:46:13;;;;;;;1999.90;999.90;;;12.60;99.90;;;;;;5018660;28;20489;-69
2022/10/08 00:48:39;;;;;;;1999.90;999.90;;;12.60;99.90;;;;;;5018617;28;20405;-68
2022/10/08 00:51:04;;;;;;;1999.90;999.90;;;12.60;99.90;;;;;;5018524;28;20478;-68
2022/10/08 00:53:30;;;;;;;1999.90;999.90;;;12.60;99.90;;;;;;5018798;28;20680;-68
2022/10/08 00:55:56;;;;;;;1999.90;999.90;;;12.60;99.90;;;;;;5018555;28;20169;-68
2022/10/08 00:58:25;;;;;;;1999.90;999.90;;;12.60;99.90;;;;;;5018393;28;20216;-68
2022/10/08 01:00:51;;;;;;;1999.90;999.90;;;12.50;99.90;;;;;;5018565;28;20208;-68
2022/10/08 01:03:16;;;;;;;1999.90;999.90;;;12.50;99.90;;;;;;5018528;28;20415;-68
2022/10/08 01:05:57;;;;;;;1999.90;999.90;;;12.50;99.90;;;;;;5018462;28;20564;-68
2022/10/08 01:08:28;;;;;;;1999.90;999.90;;;12.50;99.90;;;;;;5018423;28;20169;-68
2022/10/08 01:11:29;;;;;;;1999.90;999.90;;;12.50;99.90;;;;;;5018501;28;20425;-68
2022/10/08 01:14:19;;;;;;;1999.90;999.90;;;12.40;99.90;;;;;;5016234;28;20466;-68
2022/10/08 01:16:57;;;;;;;1999.90;999.90;;;12.40;99.90;;;;;;5018500;28;20416;-68
2022/10/08 01:19:37;;;;;;;1999.90;999.90;;;12.40;99.90;;;;;;5018300;28;20447;-68
2022/10/08 01:22:21;;;;;;;1999.90;999.90;;;12.50;99.90;;;;;;5018439;28;20400;-68
2022/10/08 01:27:49;;;;;;;1999.90;999.90;;;12.60;99.90;;;;;;5018251;28;20447;-68
2022/10/08 01:30:17;;;;;;;1999.90;999.90;;;12.60;99.90;;;;;;5018214;28;20884;-69
2022/10/08 01:32:58;;;;;;;1999.90;999.90;;;12.60;99.90;;;;;;5018239;28;20405;-69
2022/10/08 01:35:30;;;;;;;1999.90;999.90;;;12.60;99.90;;;;;;5018250;28;20404;-68
2022/10/08 01:38:01;;;;;;;1999.90;999.90;;;12.60;99.90;;;;;;5018024;28;20437;-69
2022/10/08 01:40:32;;;;;;;1999.90;999.90;;;12.60;99.90;;;;;;5018280;28;20478;-68
2022/10/08 01:42:59;;;;;;;1999.90;999.90;;;12.70;99.90;;;;;;5018304;28;20451;-68
2022/10/08 01:45:34;;;;;;;1999.90;999.90;;;12.70;99.90;;;;;;5018145;28;20404;-69
2022/10/08 01:48:05;;;;;;;1999.90;999.90;;;12.70;99.90;;;;;;5017990;28;20458;-69
2022/10/08 01:50:45;;;;;;;1999.90;999.90;;;12.70;99.90;;;;;;5018097;28;20425;-69
2022/10/08 01:53:14;;;;;;;1999.90;999.90;;;12.70;99.90;;;;;;5018119;28;20396;-68
2022/10/08 01:55:48;;;;;;;1999.90;999.90;;;12.70;99.90;;;;;;5015469;28;20401;-69
2022/10/08 01:58:27;;;;;;;1999.90;999.90;;;12.70;99.90;;;;;;5014972;28;20447;-68
2022/10/08 02:00:57;;;;;;;1999.90;999.90;;;12.70;99.90;;;;;;5015159;28;20424;-68
2022/10/08 02:03:22;;;;;;;1999.90;999.90;;;12.70;99.90;;;;;;5014855;28;20404;-69
2022/10/08 02:05:53;;;;;;;1999.90;999.90;;;12.70;99.90;;;;;;5013649;28;20404;-68
2022/10/08 02:08:20;;;;;;;1999.90;999.90;;;12.70;99.90;;;;;;5014756;28;20674;-68
2022/10/08 02:10:46;;;;;;;1999.90;999.90;;;12.70;99.90;;;;;;5014693;28;20454;-69
2022/10/08 02:13:12;;;;;;;1999.90;999.90;;;12.70;99.90;;;;;;5014720;28;20448;-69
2022/10/08 02:16:05;;;;;;;1999.90;999.90;;;12.70;99.90;;;;;;5014612;28;20179;-68
2022/10/08 02:19:09;;;;;;;1999.90;999.90;;;12.70;99.90;;;;;;5008796;28;20237;-68
2022/10/08 02:21:38;;;;;;;1999.90;999.90;;;12.70;99.90;;;;;;5012370;28;20944;-68
2022/10/08 02:24:17;;;;;;;1999.90;999.90;;;12.80;99.90;;;;;;5014924;28;20484;-69
2022/10/08 02:26:53;;;;;;;1999.90;999.90;;;12.70;99.90;;;;;;5014199;28;21052;-68
2022/10/08 02:29:28;;;;;;;1999.90;999.90;;;12.70;99.90;;;;;;5014304;28;20536;-68
2022/10/08 02:32:02;;;;;;;1999.90;999.90;;;12.70;99.90;;;;;;5014475;28;20412;-68
2022/10/08 02:34:33;;;;;;;1999.90;999.90;;;12.70;99.90;;;;;;5014347;28;20411;-68
2022/10/08 02:37:07;;;;;;;1999.90;999.90;;;12.70;99.90;;;;;;5014174;28;20831;-68
2022/10/08 02:39:37;;;;;;;1999.90;999.90;;;12.80;99.90;;;;;;5014038;28;20451;-69
2022/10/08 02:42:09;;;;;;;1999.90;999.90;;;12.80;99.90;;;;;;5014180;28;20878;-69
2022/10/08 02:44:41;;;;;;;1999.90;999.90;;;12.80;99.90;;;;;;5014282;28;20485;-69
2022/10/08 02:47:10;;;;;;;1999.90;999.90;;;12.80;99.90;;;;;;5013979;28;20394;-69
2022/10/08 02:49:43;;;;;;;1999.90;999.90;;;12.70;99.90;;;;;;5013883;28;20796;-69
2022/10/08 02:52:10;;;;;;;1999.90;999.90;;;12.80;99.90;;;;;;5014073;28;20460;-68
2022/10/08 02:54:38;;;;;;;1999.90;999.90;;;12.70;99.90;;;;;;5013935;28;20409;-68
2022/10/08 02:57:12;;;;;;;1999.90;999.90;;;12.80;99.90;;;;;;5013777;28;20440;-68
2022/10/08 02:59:38;;;;;;;1999.90;999.90;;;12.70;99.90;;;;;;5013688;28;20448;-68
2022/10/08 03:02:04;;;;;;;1999.90;999.90;;;12.70;99.90;;;;;;5013761;28;20400;-68
2022/10/08 03:04:41;;;;;;;1999.90;999.90;;;12.70;99.90;;;;;;5013834;28;20175;-69
2022/10/08 03:07:07;;;;;;;1999.90;999.90;;;12.80;99.90;;;;;;5013363;28;20393;-68
2022/10/08 03:09:39;;;;;;;1999.90;999.90;;;12.80;99.90;;;;;;5013500;28;20547;-68
2022/10/08 03:12:06;;;;;;;1999.90;999.90;;;12.80;99.90;;;;;;5013623;28;20768;-68
2022/10/08 03:14:38;;;;;;;1999.90;999.90;;;12.80;99.90;;;;;;5013465;28;20437;-68
2022/10/08 03:17:06;;;;;;;1999.90;999.90;;;12.80;99.90;;;;;;5013412;28;20416;-68
2022/10/08 03:19:33;;;;;;;1999.90;999.90;;;12.80;99.90;;;;;;5013285;28;20455;-68
2022/10/08 03:21:59;;;;;;;1999.90;999.90;;;12.80;99.90;;;;;;5013544;28;20424;-69
2022/10/08 03:24:24;;;;;;;1999.90;999.90;;;12.80;99.90;;;;;;5013414;28;20775;-69
2022/10/08 03:26:52;;;;;;;1999.90;999.90;;;12.80;99.90;;;;;;5013255;28;20166;-68
2022/10/08 03:29:17;;;;;;;1999.90;999.90;;;12.90;99.90;;;;;;5013080;28;20201;-69
2022/10/08 03:31:43;;;;;;;1999.90;999.90;;;12.90;99.90;;;;;;5013348;28;20413;-69
2022/10/08 03:34:09;;;;;;;1999.90;999.90;;;12.90;99.90;;;;;;5013297;28;20253;-68
2022/10/08 03:36:34;;;;;;;1999.90;999.90;;;13.00;99.90;;;;;;5012957;28;20215;-69
2022/10/08 03:39:00;;;;;;;1999.90;999.90;;;13.00;99.90;;;;;;5012897;28;20194;-68
2022/10/08 03:41:25;;;;;;;1999.90;999.90;;;13.10;99.90;;;;;;5013122;28;20163;-69
2022/10/08 03:43:51;;;;;;;1999.90;999.90;;;13.20;99.90;;;;;;5013017;28;20166;-68
2022/10/08 03:46:16;;;;;;;1999.90;999.90;;;13.20;99.90;;;;;;5013063;28;20304;-68
2022/10/08 03:48:42;;;;;;;1999.90;999.90;;;13.20;99.90;;;;;;5012777;28;20168;-68
2022/10/08 03:51:11;;;;;;;1999.90;999.90;;;13.20;99.90;;;;;;5013200;28;20205;-69
2022/10/08 03:53:38;;;;;;;1999.90;999.90;;;13.20;99.90;;;;;;5012894;28;20252;-69
2022/10/08 03:56:08;;;;;;;1999.90;999.90;;;13.20;99.90;;;;;;5012845;28;20425;-68
2022/10/08 03:58:34;;;;;;;1999.90;999.90;;;13.20;99.90;;;;;;5012625;28;20453;-68
2022/10/08 04:01:03;;;;;;;1999.90;999.90;;;13.20;99.90;;;;;;5012716;28;20454;-69
2022/10/08 04:03:29;;;;;;;1999.90;999.90;;;13.30;99.90;;;;;;5012751;28;20412;-68
2022/10/08 04:05:55;;;;;;;1999.90;999.90;;;13.30;99.90;;;;;;5012663;28;20419;-68
2022/10/08 04:08:21;;;;;;;1999.90;999.90;;;13.30;99.90;;;;;;5012604;28;20411;-68
2022/10/08 04:10:47;;;;;;;1999.90;999.90;;;13.40;99.90;;;;;;5012807;28;20840;-68
2022/10/08 04:13:14;;;;;;;1999.90;999.90;;;13.30;99.90;;;;;;5012680;28;20400;-68
2022/10/08 04:15:41;;;;;;;1999.90;999.90;;;13.30;99.90;;;;;;5012588;28;20175;-68
2022/10/08 04:18:06;;;;;;;1999.90;999.90;;;13.30;99.90;;;;;;5012030;28;20850;-68
2022/10/08 04:20:32;;;;;;;1999.90;999.90;;;13.20;99.90;;;;;;5012167;28;20475;-68
2022/10/08 04:22:58;;;;;;;1999.90;999.90;;;13.10;99.90;;;;;;5012528;28;20170;-68
2022/10/08 04:25:24;;;;;;;1999.90;999.90;;;13.10;99.90;;;;;;5012704;28;20410;-68
2022/10/08 04:27:50;;;;;;;1999.90;999.90;;;13.10;99.90;;;;;;5012157;28;20192;-69
2022/10/08 04:30:16;;;;;;;1999.90;999.90;;;13.10;99.90;;;;;;5012195;28;20632;-68
2022/10/08 04:32:42;;;;;;;1999.90;999.90;;;13.20;99.90;;;;;;5012484;28;20175;-68
2022/10/08 04:35:08;;;;;;;1999.90;999.90;;;13.10;99.90;;;;;;5012441;28;20413;-69
2022/10/08 04:37:34;;;;;;;1999.90;999.90;;;13.00;99.90;;;;;;5011995;28;20409;-68
2022/10/08 04:39:59;;;;;;;1999.90;999.90;;;12.80;99.90;;;;;;5012292;28;20999;-69
2022/10/08 04:42:25;;;;;;;1999.90;999.90;;;12.80;99.90;;;;;;5012296;28;20449;-68
2022/10/08 04:44:51;;;;;;;1999.90;999.90;;;12.70;99.90;;;;;;5012227;28;20224;-67
2022/10/08 04:47:17;;;;;;;1999.90;999.90;;;12.60;99.90;;;;;;5012290;28;20458;-68
2022/10/08 04:49:42;;;;;;;1999.90;999.90;;;12.60;99.90;;;;;;5012316;28;20201;-68
2022/10/08 04:52:08;;;;;;;1999.90;999.90;;;12.40;99.90;;;;;;5012370;28;20412;-69
2022/10/08 04:54:34;;;;;;;1999.90;999.90;;;12.40;99.90;;;;;;5012415;28;20617;-68
2022/10/08 04:57:00;;;;;;;1999.90;999.90;;;12.40;99.90;;;;;;5011964;28;20504;-68
2022/10/08 04:59:26;;;;;;;1999.90;999.90;;;12.40;99.90;;;;;;5011856;28;20602;-68
2022/10/08 05:01:55;;;;;;;1999.90;999.90;;;12.40;99.90;;;;;;5012074;28;20535;-69
2022/10/08 05:04:21;;;;;;;1999.90;999.90;;;12.40;99.90;;;;;;5012291;28;20541;-68
2022/10/08 05:06:47;;;;;;;1999.90;999.90;;;12.40;99.90;;;;;;5011809;28;20902;-69
2022/10/08 05:09:13;;;;;;;1999.90;999.90;;;12.40;99.90;;;;;;5011833;28;20421;-69
2022/10/08 05:11:38;;;;;;;1999.90;999.90;;;12.40;99.90;;;;;;5011980;28;20636;-68
2022/10/08 05:14:04;;;;;;;1999.90;999.90;;;12.40;99.90;;;;;;5011948;28;20546;-68
2022/10/08 05:16:30;;;;;;;1999.90;999.90;;;12.40;99.90;;;;;;5011966;28;20173;-68
2022/10/08 05:18:56;;;;;;;1999.90;999.90;;;12.40;99.90;;;;;;5011758;28;20682;-68
2022/10/08 05:21:25;;;;;;;1999.90;999.90;;;12.40;99.90;;;;;;5011947;28;20429;-68
2022/10/08 05:23:58;;;;;;;1999.90;999.90;;;12.40;99.90;;;;;;5011803;28;20400;-68
2022/10/08 05:26:26;;;;;;;1999.90;999.90;;;12.40;99.90;;;;;;5011899;28;20471;-68
2022/10/08 05:28:55;;;;;;;1999.90;999.90;;;12.30;99.90;;;;;;5011570;28;20804;-68
2022/10/08 05:31:21;;;;;;;1999.90;999.90;;;12.30;99.90;;;;;;5014761;28;20782;-68
2022/10/08 05:33:47;;;;;;;1999.90;999.90;;;12.30;99.90;;;;;;5015485;28;20407;-68
2022/10/08 05:36:17;;;;;;;1999.90;999.90;;;12.30;99.90;;;;;;5015466;28;20766;-68
2022/10/08 05:38:43;;;;;;;1999.90;999.90;;;12.30;99.90;;;;;;5015281;28;20197;-68
2022/10/08 05:41:18;;;;;;;1999.90;999.90;;;12.30;99.90;;;;;;5015422;28;20431;-68
2022/10/08 05:43:45;;;;;;;1999.90;999.90;;;12.30;99.90;;;;;;5015426;28;20173;-68
2022/10/08 05:46:11;;;;;;;1999.90;999.90;;;12.30;99.90;;;;;;5015334;28;20400;-68
2022/10/08 05:48:37;;;;;;;1999.90;999.90;;;12.30;99.90;;;;;;5015123;28;20414;-68
2022/10/08 05:51:09;;;;;;;1999.90;999.90;;;12.30;99.90;;;;;;5015198;28;20428;-68
2022/10/08 05:53:36;;;;;;;1999.90;999.90;;;12.30;99.90;;;;;;5015287;28;20444;-68
2022/10/08 05:56:05;;;;;;;1999.90;999.90;;;12.30;99.90;;;;;;5015728;28;20759;-68
2022/10/08 05:58:33;;;;;;;1999.90;999.90;;;12.20;99.90;;;;;;5014975;28;20439;-68
2022/10/08 06:01:00;;;;;;;1999.90;999.90;;;12.20;99.90;;;;;;5015236;28;20490;-68
2022/10/08 06:03:26;;;;;;;1999.90;999.90;;;12.30;99.90;;;;;;5014972;28;20443;-68
2022/10/08 06:05:52;;;;;;;1999.90;999.90;;;12.30;99.90;;;;;;5014827;28;20774;-68
2022/10/08 06:08:20;;;;;;;1999.90;999.90;;;12.30;99.90;;;;;;5015315;28;20435;-68
2022/10/08 06:10:52;;;;;;;1999.90;999.90;;;12.30;99.90;;;;;;5015034;28;20476;-68
2022/10/08 06:13:19;;;;;;;1999.90;999.90;;;12.30;99.90;;;;;;5014999;28;20412;-69
2022/10/08 06:16:09;;;;;;;1999.90;999.90;;;12.40;99.90;;;;;;5014633;28;20415;-68
2022/10/08 06:18:40;;;;;;;1999.90;999.90;;;12.40;99.90;;;;;;5007080;28;20464;-68
2022/10/08 06:21:11;;;;;;;1999.90;999.90;;;12.50;99.90;;;;;;5014626;28;21017;-68
2022/10/08 06:23:38;;;;;;;1999.90;999.90;;;12.50;99.90;;;;;;5014595;28;20495;-68
2022/10/08 06:26:06;;;;;;;1999.90;999.90;;;12.50;99.90;;;;;;5014492;28;20409;-68
2022/10/08 06:28:33;;;;;;;1999.90;999.90;;;12.50;99.90;;;;;;5014309;28;20408;-68
2022/10/08 06:30:58;;;;;;;1999.90;999.90;;;12.50;99.90;;;;;;5014928;28;20523;-68
2022/10/08 06:33:25;;;;;;;1999.90;999.90;;;12.50;99.90;;;;;;5014469;28;20420;-68
2022/10/08 06:35:51;;;;;;;1999.90;999.90;;;12.50;99.90;;;;;;5014329;28;20223;-68
2022/10/08 06:38:16;;;;;;;1999.90;999.90;;;12.50;99.90;;;;;;5014494;28;20854;-68
2022/10/08 06:40:42;;;;;;;1999.90;999.90;;;12.50;99.90;;;;;;5014326;28;20254;-68
2022/10/08 06:43:18;;;;;;;1999.90;999.90;;;12.60;99.90;;;;;;5013513;28;20209;-68
2022/10/08 06:45:45;;;;;;;1999.90;999.90;;;12.60;99.90;;;;;;5014330;28;20178;-68
2022/10/08 06:48:12;;;;;;;1999.90;999.90;;;12.60;99.90;;;;;;5013964;28;20419;-68
2022/10/08 06:50:38;;;;;;;1999.90;999.90;;;12.70;99.90;;;;;;5014237;28;20424;-68
2022/10/08 06:53:06;;;;;;;1999.90;999.90;;;12.70;99.90;;;;;;5014329;28;20410;-68
2022/10/08 06:55:33;;;;;;;1999.90;999.90;;;12.70;99.90;;;;;;5014012;28;20415;-68
2022/10/08 06:57:59;;;;;;;1999.90;999.90;;;12.70;99.90;;;;;;5013681;28;20503;-67
2022/10/08 07:00:25;;;;;;;1999.90;999.90;;;12.80;99.90;;;;;;5014003;28;20429;-68
2022/10/08 07:02:51;;;;;;;1999.90;999.90;;;12.80;99.90;;;;;;5013827;28;20544;-68
2022/10/08 07:05:17;;;;;;;1999.90;999.90;;;13.00;99.90;;;;;;5013781;28;20497;-68
2022/10/08 07:07:42;;;;;;;1999.90;999.90;;;13.00;99.90;;;;;;5013437;28;20181;-68
2022/10/08 07:10:08;;;;;;;1999.90;999.90;;;13.00;99.90;;;;;;5013563;28;20828;-68
2022/10/08 07:12:34;;;;;;;1999.90;999.90;;;13.00;99.90;;;;;;5013814;28;20253;-68
2022/10/08 07:14:59;;;;;;;1999.90;999.90;;;13.10;99.90;;;;;;5013923;28;20630;-68
2022/10/08 07:17:27;;;;;;;1999.90;999.90;;;13.10;99.90;;;;;;5014186;28;20210;-68
2022/10/08 07:19:53;;;;;;;1999.90;999.90;;;13.00;99.90;;;;;;5014091;28;20215;-68
2022/10/08 07:22:19;;;;;;;1999.90;999.90;;;13.10;99.90;;;;;;5013935;28;20416;-67
2022/10/08 07:24:44;;;;;;;1999.90;999.90;;;13.10;99.90;;;;;;5013782;28;20408;-67
2022/10/08 07:27:10;;;;;;;1999.90;999.90;;;13.00;99.90;;;;;;5013743;28;20178;-68
2022/10/08 07:29:36;;;;;;;1999.90;999.90;;;13.00;99.90;;;;;;5013304;28;20565;-68
2022/10/08 07:32:01;;;;;;;1999.90;999.90;;;13.00;99.90;;;;;;5013156;28;20179;-68
2022/10/08 07:34:27;;;;;;;1999.90;999.90;;;13.00;99.90;;;;;;5013159;28;20594;-68
2022/10/08 07:36:52;;;;;;;1999.90;999.90;;;13.10;99.90;;;;;;5013012;28;20182;-68
2022/10/08 07:39:18;;;;;;;1999.90;999.90;;;13.10;99.90;;;;;;5013017;28;20228;-68
2022/10/08 07:41:44;;;;;;;1999.90;999.90;;;13.20;99.90;;;;;;5013129;28;20169;-68
2022/10/08 07:44:11;;;;;;;1999.90;999.90;;;13.20;99.90;;;;;;5013128;28;20499;-68
2022/10/08 07:46:41;;;;;;;1999.90;999.90;;;13.30;99.90;;;;;;5013169;28;20412;-68
2022/10/08 07:49:06;;;;;;;1999.90;999.90;;;13.40;99.90;;;;;;5013278;28;20437;-68
2022/10/08 07:51:33;;;;;;;1999.90;999.90;;;13.50;99.90;;;;;;5013212;28;20493;-68
2022/10/08 07:54:00;;;;;;;1999.90;999.90;;;13.60;99.90;;;;;;5012011;28;20173;-68
2022/10/08 07:56:26;;;;;;;1999.90;999.90;;;13.60;99.90;;;;;;5013140;28;20410;-67
2022/10/08 07:58:51;;;;;;;1999.90;999.90;;;13.70;99.90;;;;;;5012886;28;20459;-68
2022/10/08 08:01:25;;;;;;;1999.90;999.90;;;13.80;99.90;;;;;;5013136;28;20195;-68
2022/10/08 08:03:54;;;;;;;1999.90;999.90;;;14.00;99.90;;;;;;5012841;28;20705;-68
2022/10/08 08:06:19;;;;;;;1999.90;999.90;;;14.00;99.90;;;;;;5012566;28;20411;-69
2022/10/08 08:08:45;;;;;;;1999.90;999.90;;;14.20;99.90;;;;;;5012594;28;20959;-69
2022/10/08 08:11:14;;;;;;;1999.90;999.90;;;14.30;99.90;;;;;;5010126;28;20517;-68
2022/10/08 08:13:41;;;;;;;1999.90;999.90;;;14.30;99.90;;;;;;5012298;28;20157;-68
2022/10/08 08:16:18;;;;;;;1999.90;999.90;;;14.30;99.90;;;;;;5012035;28;20408;-68
2022/10/08 08:18:46;;;;;;;1999.90;999.90;;;14.30;99.90;;;;;;5011074;28;20512;-68
2022/10/08 08:21:14;;;;;;;1999.90;999.90;;;14.30;99.90;;;;;;5012298;28;20989;-68
2022/10/08 08:23:46;;;;;;;1999.90;999.90;;;14.30;99.90;;;;;;5012296;28;20434;-68
2022/10/08 08:26:23;;;;;;;1999.90;999.90;;;14.40;99.90;;;;;;5011460;28;20771;-68
2022/10/08 08:28:50;;;;;;;1999.90;999.90;;;14.60;99.90;;;;;;5011501;28;20409;-68
2022/10/08 08:31:19;;;;;;;1999.90;999.90;;;14.60;99.90;;;;;;5011843;28;20426;-68
2022/10/08 08:33:50;;;;;;;1999.90;999.90;;;14.70;99.90;;;;;;5011568;28;20417;-68
2022/10/08 08:36:17;;;;;;;1999.90;999.90;;;14.60;99.90;;;;;;5011813;28;20418;-68
2022/10/08 08:38:43;;;;;;;1999.90;999.90;;;14.70;99.90;;;;;;5011433;28;20848;-68
2022/10/08 08:41:45;;;;;;;1999.90;999.90;;;14.80;99.90;;;;;;5011570;28;20459;-68
2022/10/08 08:44:26;;;;;;;1999.90;999.90;;;14.70;99.90;;;;;;5011936;28;20406;-68
2022/10/08 08:46:58;;;;;;;1999.90;999.90;;;14.60;99.90;;;;;;5011349;28;20406;-68
2022/10/08 08:49:37;;;;;;;1999.90;999.90;;;14.70;99.90;;;;;;5011398;28;20426;-68
2022/10/08 08:52:05;;;;;;;1999.90;999.90;;;14.70;99.90;;;;;;5011923;28;20407;-68
2022/10/08 08:54:30;;;;;;;1999.90;999.90;;;14.70;99.90;;;;;;5011665;28;20940;-68
2022/10/08 08:57:10;;;;;;;1999.90;999.90;;;14.60;99.90;;;;;;5011322;28;20411;-68
2022/10/08 08:59:44;;;;;;;1999.90;999.90;;;14.40;99.90;;;;;;5011534;28;20229;-68
2022/10/08 09:02:25;;;;;;;1999.90;999.90;;;14.50;99.90;;;;;;5011264;28;20404;-67
2022/10/08 09:04:59;;;;;;;1999.90;999.90;;;14.70;99.90;;;;;;5012464;28;20465;-68
2022/10/08 09:07:32;;;;;;;1999.90;999.90;;;14.80;99.90;;;;;;5015693;28;20791;-68
2022/10/08 09:09:58;;;;;;;1999.90;999.90;;;15.00;99.90;;;;;;5015108;28;20429;-67
2022/10/08 09:12:36;;;;;;;1999.90;999.90;;;15.10;99.90;;;;;;5015518;28;20414;-68
2022/10/08 09:15:02;;;;;;;1999.90;999.90;;;15.40;99.90;;;;;;5015819;28;20156;-68
2022/10/08 09:17:51;;;;;;;1999.90;999.90;;;15.60;99.90;;;;;;5014699;28;20407;-68
2022/10/08 09:20:18;;;;;;;1999.90;999.90;;;15.70;99.90;;;;;;5015419;28;20434;-68
2022/10/08 09:22:44;;;;;;;1999.90;999.90;;;15.60;99.90;;;;;;5015540;28;20424;-68
2022/10/08 09:25:12;;;;;;;1999.90;999.90;;;15.60;99.90;;;;;;5015179;28;20857;-68
2022/10/08 09:27:51;;;;;;;1999.90;999.90;;;15.50;99.90;;;;;;5014824;28;20444;-67
2022/10/08 09:30:23;;;;;;;1999.90;999.90;;;15.30;99.90;;;;;;5015257;28;20450;-69
2022/10/08 09:32:52;;;;;;;1999.90;999.90;;;15.00;99.90;;;;;;5014810;28;20427;-68
2022/10/08 09:35:18;;;;;;;1999.90;999.90;;;15.00;99.90;;;;;;5015233;28;20514;-68
2022/10/08 09:37:48;;;;;;;1999.90;999.90;;;14.90;99.90;;;;;;5014543;28;20494;-67
2022/10/08 09:40:21;;;;;;;1999.90;999.90;;;14.70;99.90;;;;;;5014340;28;20466;-68
2022/10/08 09:43:10;;;;;;;1999.90;999.90;;;14.70;99.90;;;;;;5015067;28;20919;-68
2022/10/08 09:45:45;;;;;;;1999.90;999.90;;;14.80;99.90;;;;;;5015230;28;20403;-68
2022/10/08 09:48:20;;;;;;;1999.90;999.90;;;15.00;99.90;;;;;;5014158;28;20416;-68
2022/10/08 09:50:50;;;;;;;1999.90;999.90;;;15.00;99.90;;;;;;5014821;28;20431;-68
2022/10/08 09:53:16;;;;;;;1999.90;999.90;;;15.00;99.90;;;;;;5014857;28;20404;-68
2022/10/08 09:55:51;;;;;;;1999.90;999.90;;;15.20;99.90;;;;;;5014249;28;20820;-68
2022/10/08 09:58:18;;;;;;;1999.90;999.90;;;15.40;99.90;;;;;;5014235;28;20530;-68
2022/10/08 10:00:43;;;;;;;1999.90;999.90;;;15.70;99.90;;;;;;5014837;28;20434;-68
2022/10/08 10:03:18;;;;;;;1999.90;999.90;;;15.80;99.90;;;;;;5014502;28;20908;-68
2022/10/08 10:05:50;;;;;;;1999.90;999.90;;;15.80;99.90;;;;;;5014428;28;20184;-68
2022/10/08 10:08:52;;;;;;;1999.90;999.90;;;15.80;99.90;;;;;;5013727;28;20407;-68
2022/10/08 10:11:37;;;;;;;1999.90;999.90;;;15.60;99.90;;;;;;5014652;28;20492;-67
2022/10/08 10:14:21;;;;;;;1999.90;999.90;;;15.50;99.90;;;;;;5014788;28;20405;-68
2022/10/08 10:16:53;;;;;;;1999.90;999.90;;;15.40;99.90;;;;;;5012161;28;20785;-68
2022/10/08 10:19:24;;;;;;;1999.90;999.90;;;15.30;99.90;;;;;;5014037;28;20459;-68
2022/10/08 10:22:02;;;;;;;1999.90;999.90;;;15.20;99.90;;;;;;5014426;28;20772;-68
2022/10/08 10:25:07;;;;;;;1999.90;999.90;;;15.10;99.90;;;;;;5013976;28;20406;-68
2022/10/08 10:27:42;;;;;;;1999.90;999.90;;;14.90;99.90;;;;;;5008214;28;20923;-67
2022/10/08 10:30:23;;;;;;;1999.90;999.90;;;14.80;99.90;;;;;;5013893;28;20498;-68
2022/10/08 10:33:31;;;;;;;1999.90;999.90;;;14.80;99.90;;;;;;5014350;28;20491;-68
2022/10/08 10:36:03;;;;;;;1999.90;999.90;;;15.10;99.90;;;;;;4991252;28;20427;-68
2022/10/08 10:38:32;;;;;;;1999.90;999.90;;;15.40;99.90;;;;;;5013268;28;21034;-67
2022/10/08 10:41:25;;;;;;;1999.90;999.90;;;15.70;99.90;;;;;;5014058;28;20435;-68
2022/10/08 10:44:11;;;;;;;1999.90;999.90;;;15.90;99.90;;;;;;5014163;28;20420;-68
2022/10/08 10:46:49;;;;;;;1999.90;999.90;;;16.20;99.90;;;;;;5012808;28;20491;-68
2022/10/08 10:49:23;;;;;;;1999.90;999.90;;;16.40;99.90;;;;;;5013579;28;20460;-67
2022/10/08 10:52:16;;;;;;;1999.90;999.90;;;16.30;99.90;;;;;;5013874;28;20775;-68
2022/10/08 10:54:57;;;;;;;1999.90;999.90;;;16.30;99.90;;;;;;5013395;28;20503;-68
2022/10/08 10:57:53;;;;;;;1999.90;999.90;;;16.40;99.90;;;;;;5013107;28;20425;-68
2022/10/08 11:00:43;;;;;;;1999.90;999.90;;;16.70;99.90;;;;;;5013092;28;20534;-68
2022/10/08 11:03:29;;;;;;;1999.90;999.90;;;16.80;99.90;;;;;;5013636;28;20403;-69
2022/10/08 11:06:32;;;;;;;1999.90;999.90;;;16.40;99.90;;;;;;5013375;28;20419;-68
2022/10/08 11:09:00;;;;;;;1999.90;999.90;;;16.00;99.90;;;;;;5012862;28;20400;-68
2022/10/08 11:11:51;;;;;;;1999.90;999.90;;;15.60;99.90;;;;;;5013335;28;20443;-68
2022/10/08 11:14:19;;;;;;;1999.90;999.90;;;15.40;99.90;;;;;;5013315;28;20924;-67
2022/10/08 11:16:55;;;;;;;1999.90;999.90;;;15.40;99.90;;;;;;5012205;28;20408;-68
2022/10/08 11:19:45;;;;;;;1999.90;999.90;;;15.70;99.90;;;;;;5012918;28;20463;-68
2022/10/08 11:22:38;;;;;;;1999.90;999.90;;;16.20;99.90;;;;;;5013051;28;20495;-68
2022/10/08 11:25:21;;;;;;;1999.90;999.90;;;16.80;99.90;;;;;;5013212;28;20560;-67
2022/10/08 11:28:10;;;;;;;1999.90;999.90;;;17.50;99.90;;;;;;5012110;28;20394;-68
2022/10/08 11:31:00;;;;;;;1999.90;999.90;;;18.10;99.90;;;;;;5012371;28;20478;-68
2022/10/08 11:33:27;;;;;;;1999.90;999.90;;;18.30;99.90;;;;;;5012947;28;20819;-69
2022/10/08 11:36:19;;;;;;;1999.90;999.90;;;18.00;99.90;;;;;;5012900;28;20407;-68
2022/10/08 11:38:51;;;;;;;1999.90;999.90;;;18.10;99.90;;;;;;5011860;28;20447;-68
2022/10/08 11:41:26;;;;;;;1999.90;999.90;;;17.60;99.90;;;;;;5012958;28;20389;-68
2022/10/08 11:44:02;;;;;;;1999.90;999.90;;;17.20;99.90;;;;;;5012840;28;20410;-68
2022/10/08 11:46:35;;;;;;;1999.90;999.90;;;16.60;99.90;;;;;;5012414;28;20463;-68
2022/10/08 11:49:12;;;;;;;1999.90;999.90;;;16.30;99.90;;;;;;5012512;28;20415;-68
2022/10/08 11:51:43;;;;;;;1999.90;999.90;;;16.10;99.90;;;;;;5012783;28;20457;-68
2022/10/08 11:54:30;;;;;;;1999.90;999.90;;;15.90;99.90;;;;;;5012741;28;20426;-68
2022/10/08 11:57:19;;;;;;;1999.90;999.90;;;16.20;99.90;;;;;;5012091;28;20474;-68
2022/10/08 12:00:03;;;;;;;1999.90;999.90;;;17.20;99.90;;;;;;5011626;28;20464;-68
2022/10/08 12:02:32;;;;;;;1999.90;999.90;;;18.10;99.90;;;;;;5012780;28;20417;-68
2022/10/08 12:05:15;;;;;;;1999.90;999.90;;;19.10;99.90;;;;;;5012554;28;20412;-69
2022/10/08 12:07:50;;;;;;;1999.90;999.90;;;19.20;99.90;;;;;;5011269;28;20409;-68
2022/10/08 12:10:16;;;;;;;1999.90;999.90;;;18.30;99.90;;;;;;5012244;28;20470;-67
2022/10/08 12:12:47;;;;;;;1999.90;999.90;;;17.60;99.90;;;;;;5012248;28;20493;-68
2022/10/08 12:15:22;;;;;;;1999.90;999.90;;;17.90;99.90;;;;;;5011866;28;20177;-68
2022/10/08 12:17:56;;;;;;;1999.90;999.90;;;18.50;99.90;;;;;;5011679;28;20416;-68
2022/10/08 12:20:28;;;;;;;1999.90;999.90;;;19.10;99.90;;;;;;5012442;28;21126;-68
2022/10/08 12:23:04;;;;;;;1999.90;999.90;;;18.80;99.90;;;;;;5011841;28;20386;-68